Time;durP1;ratioP1;P1;durP2;ratioP2;P2;SDS_P1;SDS_P2;PMS_P1;PMS_P2;Temp;Humidity;BMP_temperature;BMP_pressure;BME280_temperature;BME280_humidity;BME280_pressure;Samples;Min_cycle;Max_cycle;Signal;HPM_P1;HPM_P2
2021/05/01 00:00:58;;;;;;;;;;;8.00;99.90;;;;;;5067856;28;19928;-82
2021/05/01 00:03:24;;;;;;;;;;;8.00;99.90;;;;;;5052545;28;20305;-82
2021/05/01 00:05:49;;;;;;;;;;;7.90;99.90;;;;;;5052396;28;19931;-82
2021/05/01 00:08:15;;;;;;;;;;;7.90;99.90;;;;;;5033846;28;19916;-81
2021/05/01 00:10:41;;;;;;;;;;;7.90;99.90;;;;;;5051184;28;20000;-81
2021/05/01 00:13:06;;;;;;;;;;;7.90;99.90;;;;;;5027678;28;19920;-81
2021/05/01 00:15:32;;;;;;;;;;;7.80;99.90;;;;;;5038372;28;19924;-81
2021/05/01 00:17:58;;;;;;;;;;;7.80;99.90;;;;;;5051218;28;20683;-81
2021/05/01 00:20:23;;;;;;;;;;;7.80;99.90;;;;;;5036756;28;19997;-81
2021/05/01 00:22:49;;;;;;;;;;;7.80;99.90;;;;;;5033328;28;19917;-81
2021/05/01 00:25:15;;;;;;;;;;;7.80;99.90;;;;;;5052044;28;19917;-81
2021/05/01 00:27:42;;;;;;;;;;;7.80;99.90;;;;;;5050611;28;19921;-81
2021/05/01 00:30:08;;;;;;;;;;;7.90;99.90;;;;;;5041448;28;19920;-81
2021/05/01 00:32:34;;;;;;;;;;;7.90;99.90;;;;;;5058193;28;19927;-82
2021/05/01 00:35:00;;;;;;;;;;;7.90;99.90;;;;;;5035615;28;20012;-81
2021/05/01 00:37:26;;;;;;;;;;;7.90;99.90;;;;;;5031233;28;19920;-81
2021/05/01 00:39:52;;;;;;;;;;;8.30;99.90;;;;;;5017429;28;19924;-81
2021/05/01 00:42:17;;;;;;;;;;;7.90;99.90;;;;;;5071470;28;20573;-82
2021/05/01 00:44:43;;;;;;;;;;;8.00;99.90;;;;;;5055466;28;19928;-81
2021/05/01 00:47:09;;;;;;;;;;;8.00;99.90;;;;;;5036582;28;19935;-81
2021/05/01 00:49:34;;;;;;;;;;;8.00;99.90;;;;;;5046276;28;19923;-81
2021/05/01 00:52:00;;;;;;;;;;;7.90;99.90;;;;;;5051611;28;19932;-81
2021/05/01 00:54:27;;;;;;;;;;;7.90;99.90;;;;;;5051587;28;19960;-81
2021/05/01 00:56:52;;;;;;;;;;;8.00;99.90;;;;;;5051011;28;20399;-82
2021/05/01 00:59:18;;;;;;;;;;;8.00;99.90;;;;;;5053244;28;19920;-81
2021/05/01 01:01:50;;;;;;;;;;;8.00;99.90;;;;;;5051338;28;19973;-81
2021/05/01 01:04:17;;;;;;;;;;;8.00;99.90;;;;;;5050771;28;20377;-81
2021/05/01 01:06:43;;;;;;;;;;;8.00;99.90;;;;;;5060938;28;20388;-81
2021/05/01 01:09:09;;;;;;;;;;;8.00;99.90;;;;;;5043780;28;19917;-81
2021/05/01 01:11:35;;;;;;;;;;;7.90;99.90;;;;;;5050836;28;19917;-81
2021/05/01 01:14:01;;;;;;;;;;;8.00;99.90;;;;;;5032789;28;20295;-80
2021/05/01 01:16:28;;;;;;;;;;;8.00;99.90;;;;;;5042371;28;19939;-81
2021/05/01 01:18:55;;;;;;;;;;;8.00;99.90;;;;;;5031866;28;20274;-82
2021/05/01 01:21:21;;;;;;;;;;;7.90;99.90;;;;;;5046748;28;19921;-81
2021/05/01 01:23:47;;;;;;;;;;;8.00;99.90;;;;;;5016233;28;19928;-81
2021/05/01 01:26:13;;;;;;;;;;;8.00;99.90;;;;;;5053256;28;19917;-82
2021/05/01 01:28:39;;;;;;;;;;;8.10;99.90;;;;;;5033524;28;19970;-81
2021/05/01 01:31:05;;;;;;;;;;;8.00;99.90;;;;;;5050403;28;19921;-81
2021/05/01 01:33:31;;;;;;;;;;;8.00;99.90;;;;;;5053598;28;19928;-82
2021/05/01 01:35:56;;;;;;;;;;;7.90;99.90;;;;;;5055344;28;19944;-82
2021/05/01 01:38:22;;;;;;;;;;;8.00;99.90;;;;;;5057447;28;20061;-82
2021/05/01 01:40:48;;;;;;;;;;;8.00;99.90;;;;;;5069788;28;19931;-81
2021/05/01 01:43:14;;;;;;;;;;;8.00;99.90;;;;;;5021168;28;19924;-81
2021/05/01 01:45:40;;;;;;;;;;;8.00;99.90;;;;;;5054364;28;20246;-81
2021/05/01 01:48:05;;;;;;;;;;;7.90;99.90;;;;;;5061446;28;19943;-81
2021/05/01 01:50:32;;;;;;;;;;;7.90;99.90;;;;;;5036261;28;20035;-81
2021/05/01 01:52:57;;;;;;;;;;;7.90;99.90;;;;;;5031733;28;19925;-81
2021/05/01 01:55:24;;;;;;;;;;;8.00;99.90;;;;;;5070189;28;19924;-82
2021/05/01 01:57:50;;;;;;;;;;;8.00;99.90;;;;;;5057547;28;19922;-81
2021/05/01 02:00:18;;;;;;;;;;;8.00;99.90;;;;;;5054640;28;19917;-81
2021/05/01 02:02:44;;;;;;;;;;;8.00;99.90;;;;;;5048979;28;19932;-81
2021/05/01 02:05:10;;;;;;;;;;;8.00;99.90;;;;;;5054171;28;19921;-81
2021/05/01 02:07:36;;;;;;;;;;;8.00;99.90;;;;;;5048447;28;19947;-80
2021/05/01 02:10:02;;;;;;;;;;;8.00;99.90;;;;;;5060368;28;19963;-80
2021/05/01 02:12:28;;;;;;;;;;;8.00;99.90;;;;;;5039349;28;19966;-81
2021/05/01 02:14:54;;;;;;;;;;;8.00;99.90;;;;;;5060870;28;19916;-80
2021/05/01 02:17:20;;;;;;;;;;;8.00;99.90;;;;;;5055846;28;19952;-81
2021/05/01 02:19:45;;;;;;;;;;;8.00;99.90;;;;;;5051984;28;19946;-81
2021/05/01 02:22:11;;;;;;;;;;;8.00;99.90;;;;;;5055334;28;19994;-82
2021/05/01 02:24:37;;;;;;;;;;;8.00;99.90;;;;;;5064312;28;19955;-81
2021/05/01 02:27:03;;;;;;;;;;;8.00;99.90;;;;;;5034838;28;19916;-81
2021/05/01 02:29:29;;;;;;;;;;;8.00;99.90;;;;;;5068965;28;20361;-82
2021/05/01 02:31:55;;;;;;;;;;;8.20;99.90;;;;;;5039391;28;19916;-81
2021/05/01 02:34:20;;;;;;;;;;;7.90;99.90;;;;;;5036445;28;19924;-81
2021/05/01 02:36:46;;;;;;;;;;;8.00;99.90;;;;;;5054689;28;19944;-80
2021/05/01 02:39:12;;;;;;;;;;;7.90;99.90;;;;;;5051958;28;19917;-82
2021/05/01 02:41:37;;;;;;;;;;;7.90;99.90;;;;;;5035439;28;19923;-81
2021/05/01 02:44:03;;;;;;;;;;;8.00;99.90;;;;;;5047404;28;19971;-80
2021/05/01 02:46:29;;;;;;;;;;;7.80;99.90;;;;;;5055818;28;19917;-81
2021/05/01 02:48:55;;;;;;;;;;;7.80;99.90;;;;;;5053059;28;20012;-81
2021/05/01 02:51:20;;;;;;;;;;;7.80;99.90;;;;;;5054346;28;19917;-81
2021/05/01 02:53:46;;;;;;;;;;;7.80;99.90;;;;;;5053049;28;20339;-80
2021/05/01 02:56:12;;;;;;;;;;;7.80;99.90;;;;;;5034943;28;19921;-81
2021/05/01 02:58:38;;;;;;;;;;;7.80;99.90;;;;;;5053036;28;19958;-81
2021/05/01 03:01:04;;;;;;;;;;;7.70;99.90;;;;;;5063104;28;19964;-81
2021/05/01 03:03:29;;;;;;;;;;;7.70;99.90;;;;;;5040781;28;19917;-80
2021/05/01 03:05:55;;;;;;;;;;;7.70;99.90;;;;;;5018844;28;19928;-81
2021/05/01 03:08:21;;;;;;;;;;;7.60;99.90;;;;;;5057912;28;19916;-81
2021/05/01 03:10:46;;;;;;;;;;;7.60;99.90;;;;;;5066637;28;20011;-81
2021/05/01 03:13:12;;;;;;;;;;;7.60;99.90;;;;;;5052471;28;19924;-81
2021/05/01 03:15:38;;;;;;;;;;;7.60;99.90;;;;;;5036542;28;19966;-81
2021/05/01 03:18:04;;;;;;;;;;;7.50;99.90;;;;;;5046622;28;20007;-81
2021/05/01 03:20:29;;;;;;;;;;;7.50;99.90;;;;;;5046263;28;20054;-81
2021/05/01 03:22:55;;;;;;;;;;;7.50;99.90;;;;;;5054282;28;19927;-80
2021/05/01 03:25:21;;;;;;;;;;;7.40;99.90;;;;;;5059662;28;20277;-82
2021/05/01 03:27:47;;;;;;;;;;;7.40;99.90;;;;;;5024812;28;19921;-81
2021/05/01 03:30:14;;;;;;;;;;;7.40;99.90;;;;;;5052771;28;19928;-81
2021/05/01 03:32:40;;;;;;;;;;;7.40;99.90;;;;;;5054443;28;19928;-82
2021/05/01 03:35:06;;;;;;;;;;;7.40;99.90;;;;;;5068156;28;19917;-82
2021/05/01 03:37:32;;;;;;;;;;;7.30;99.90;;;;;;5032140;28;19923;-82
2021/05/01 03:39:58;;;;;;;;;;;7.30;99.90;;;;;;5017322;28;19916;-81
2021/05/01 03:42:24;;;;;;;;;;;7.30;99.90;;;;;;5065500;28;19924;-82
2021/05/01 03:44:49;;;;;;;;;;;7.30;99.90;;;;;;5052203;28;20019;-82
2021/05/01 03:47:15;;;;;;;;;;;7.10;99.90;;;;;;5053116;28;20361;-80
2021/05/01 03:49:41;;;;;;;;;;;7.20;99.90;;;;;;5052428;28;19924;-81
2021/05/01 03:52:06;;;;;;;;;;;7.20;99.90;;;;;;5051513;28;19921;-81
2021/05/01 03:54:32;;;;;;;;;;;7.20;99.90;;;;;;5051856;28;19940;-82
2021/05/01 03:56:59;;;;;;;;;;;7.20;99.90;;;;;;5050777;28;19951;-82
2021/05/01 03:59:25;;;;;;;;;;;7.20;99.90;;;;;;5054082;28;19917;-81
2021/05/01 04:01:50;;;;;;;;;;;7.10;99.90;;;;;;5051177;28;19928;-81
2021/05/01 04:04:18;;;;;;;;;;;7.10;99.90;;;;;;5065412;28;19921;-81
2021/05/01 04:06:44;;;;;;;;;;;7.10;99.90;;;;;;5050705;28;19916;-81
2021/05/01 04:09:09;;;;;;;;;;;7.10;99.90;;;;;;5032796;28;19916;-81
2021/05/01 04:11:35;;;;;;;;;;;7.20;99.90;;;;;;5056653;28;19921;-81
2021/05/01 04:14:01;;;;;;;;;;;7.20;99.90;;;;;;5051409;28;19917;-81
2021/05/01 04:16:26;;;;;;;;;;;7.20;99.90;;;;;;5052244;28;20051;-81
2021/05/01 04:18:52;;;;;;;;;;;7.20;99.90;;;;;;5032966;28;19924;-80
2021/05/01 04:21:18;;;;;;;;;;;7.20;99.90;;;;;;5049793;28;19996;-81
2021/05/01 04:23:44;;;;;;;;;;;7.20;99.90;;;;;;5051587;28;20373;-80
2021/05/01 04:26:10;;;;;;;;;;;7.20;99.90;;;;;;5069045;28;19939;-81
2021/05/01 04:28:35;;;;;;;;;;;7.10;99.90;;;;;;5069273;28;19967;-82
2021/05/01 04:31:01;;;;;;;;;;;7.10;99.90;;;;;;5056365;28;19952;-80
2021/05/01 04:33:28;;;;;;;;;;;7.10;99.90;;;;;;5053499;28;19920;-80
2021/05/01 04:35:54;;;;;;;;;;;7.10;99.90;;;;;;5046458;28;20357;-80
2021/05/01 04:38:19;;;;;;;;;;;7.10;99.90;;;;;;5063641;28;19924;-81
2021/05/01 04:40:46;;;;;;;;;;;7.20;99.90;;;;;;5064333;28;19916;-81
2021/05/01 04:43:12;;;;;;;;;;;7.00;99.90;;;;;;5047873;28;19917;-81
2021/05/01 04:45:39;;;;;;;;;;;7.10;99.90;;;;;;5033288;28;19984;-81
2021/05/01 04:48:08;;;;;;;;;;;7.10;99.90;;;;;;5054102;28;20016;-81
2021/05/01 04:50:34;;;;;;;;;;;7.00;99.90;;;;;;5027160;28;19917;-81
2021/05/01 04:53:00;;;;;;;;;;;7.00;99.90;;;;;;5062092;28;19920;-81
2021/05/01 04:55:26;;;;;;;;;;;7.00;99.90;;;;;;5052183;28;20354;-81
2021/05/01 04:57:53;;;;;;;;;;;7.00;99.90;;;;;;5051612;28;20010;-81
2021/05/01 05:00:20;;;;;;;;;;;7.00;99.90;;;;;;5050402;28;20429;-80
2021/05/01 05:02:46;;;;;;;;;;;7.00;99.90;;;;;;5050875;28;19917;-81
2021/05/01 05:05:13;;;;;;;;;;;7.10;99.90;;;;;;5052288;28;19921;-81
2021/05/01 05:07:39;;;;;;;;;;;7.00;99.90;;;;;;5051918;28;20026;-81
2021/05/01 05:10:06;;;;;;;;;;;7.00;99.90;;;;;;5054301;28;20340;-81
2021/05/01 05:12:32;;;;;;;;;;;7.00;99.90;;;;;;5060599;28;19952;-81
2021/05/01 05:14:58;;;;;;;;;;;7.00;99.90;;;;;;5052947;28;20216;-81
2021/05/01 05:17:24;;;;;;;;;;;7.10;99.90;;;;;;5049543;28;19924;-81
2021/05/01 05:19:49;;;;;;;;;;;7.20;99.90;;;;;;5052392;28;19956;-81
2021/05/01 05:22:15;;;;;;;;;;;7.20;99.90;;;;;;5054299;28;19928;-80
2021/05/01 05:24:41;;;;;;;;;;;7.20;99.90;;;;;;5040784;28;19916;-80
2021/05/01 05:27:07;;;;;;;;;;;7.20;99.90;;;;;;5058651;28;19924;-80
2021/05/01 05:29:33;;;;;;;;;;;7.30;99.90;;;;;;5036669;28;19917;-80
2021/05/01 05:31:59;;;;;;;;;;;7.40;99.90;;;;;;5054294;28;19920;-79
2021/05/01 05:34:24;;;;;;;;;;;7.40;99.90;;;;;;5069238;28;19959;-80
2021/05/01 05:36:50;;;;;;;;;;;7.30;99.90;;;;;;5054443;28;19981;-81
2021/05/01 05:39:16;;;;;;;;;;;7.40;99.90;;;;;;5070254;28;19930;-79
2021/05/01 05:41:42;;;;;;;;;;;7.30;99.90;;;;;;5070152;28;20374;-81
2021/05/01 05:44:08;;;;;;;;;;;7.30;99.90;;;;;;5052103;28;19947;-81
2021/05/01 05:46:34;;;;;;;;;;;7.30;99.90;;;;;;5053871;28;19916;-79
2021/05/01 05:48:59;;;;;;;;;;;7.30;99.90;;;;;;5054469;28;19972;-80
2021/05/01 05:51:25;;;;;;;;;;;7.60;99.90;;;;;;5036097;28;19916;-81
2021/05/01 05:53:51;;;;;;;;;;;7.50;99.90;;;;;;5052727;28;19917;-81
2021/05/01 05:56:17;;;;;;;;;;;7.40;99.90;;;;;;5053620;28;20282;-81
2021/05/01 05:58:46;;;;;;;;;;;7.30;99.90;;;;;;5054046;28;19996;-81
2021/05/01 06:01:12;;;;;;;;;;;7.40;99.90;;;;;;5038199;28;19917;-80
2021/05/01 06:03:39;;;;;;;;;;;7.40;99.90;;;;;;5051176;28;19917;-81
2021/05/01 06:06:07;;;;;;;;;;;7.50;99.90;;;;;;5061225;28;19974;-79
2021/05/01 06:08:33;;;;;;;;;;;7.60;99.90;;;;;;5063617;28;20380;-80
2021/05/01 06:11:01;;;;;;;;;;;7.70;99.90;;;;;;5059648;28;19924;-79
2021/05/01 06:13:29;;;;;;;;;;;7.70;99.90;;;;;;5058869;28;20413;-79
2021/05/01 06:15:55;;;;;;;;;;;7.80;99.90;;;;;;5054087;28;19917;-81
2021/05/01 06:18:22;;;;;;;;;;;7.70;99.90;;;;;;5052549;28;19925;-81
2021/05/01 06:20:48;;;;;;;;;;;7.70;99.90;;;;;;5036019;28;20015;-81
2021/05/01 06:23:15;;;;;;;;;;;7.60;99.90;;;;;;5046290;28;20040;-80
2021/05/01 06:25:41;;;;;;;;;;;7.50;99.90;;;;;;5037577;28;19935;-80
2021/05/01 06:28:07;;;;;;;;;;;7.50;99.90;;;;;;5046715;28;20007;-80
2021/05/01 06:30:38;;;;;;;;;;;7.60;99.90;;;;;;5028516;28;19917;-80
2021/05/01 06:33:05;;;;;;;;;;;7.70;99.90;;;;;;5033303;28;19921;-81
2021/05/01 06:35:30;;;;;;;;;;;7.90;99.90;;;;;;5052883;28;19920;-79
2021/05/01 06:37:56;;;;;;;;;;;8.20;99.90;;;;;;5063843;28;19931;-81
2021/05/01 06:40:29;;;;;;;;;;;8.10;99.90;;;;;;5057469;28;19960;-80
2021/05/01 06:43:00;;;;;;;;;;;8.20;99.90;;;;;;5065770;28;19923;-81
2021/05/01 06:45:26;;;;;;;;;;;8.30;99.90;;;;;;5035303;28;20366;-81
2021/05/01 06:47:52;;;;;;;;;;;8.40;99.90;;;;;;5068750;28;20302;-80
2021/05/01 06:50:21;;;;;;;;;;;8.40;99.90;;;;;;5051698;28;19952;-80
2021/05/01 06:52:47;;;;;;;;;;;8.40;99.90;;;;;;5027178;28;20004;-80
2021/05/01 06:55:14;;;;;;;;;;;8.40;99.90;;;;;;5030098;28;19917;-80
2021/05/01 06:57:46;;;;;;;;;;;8.50;99.90;;;;;;5053153;28;19978;-81
2021/05/01 07:00:13;;;;;;;;;;;8.50;99.90;;;;;;5066697;28;19920;-80
2021/05/01 07:02:42;;;;;;;;;;;8.50;99.90;;;;;;5034620;28;20365;-82
2021/05/01 07:05:08;;;;;;;;;;;8.60;99.90;;;;;;5052884;28;19916;-81
2021/05/01 07:07:34;;;;;;;;;;;8.70;99.90;;;;;;5041445;28;19916;-81
2021/05/01 07:10:02;;;;;;;;;;;8.80;99.90;;;;;;5057595;28;20408;-83
2021/05/01 07:12:29;;;;;;;;;;;8.90;99.90;;;;;;5056844;28;20033;-82
2021/05/01 07:14:56;;;;;;;;;;;9.10;99.90;;;;;;5052057;28;20004;-81
2021/05/01 07:17:22;;;;;;;;;;;9.20;99.90;;;;;;5052384;28;19928;-80
2021/05/01 07:19:47;;;;;;;;;;;9.40;99.90;;;;;;5044005;28;19917;-82
2021/05/01 07:22:13;;;;;;;;;;;9.70;99.90;;;;;;5035017;28;19921;-81
2021/05/01 07:24:39;;;;;;;;;;;9.80;99.90;;;;;;5067401;28;19923;-79
2021/05/01 07:27:05;;;;;;;;;;;9.90;99.90;;;;;;5051846;28;20368;-80
2021/05/01 07:29:36;;;;;;;;;;;9.90;99.90;;;;;;5051010;28;19973;-81
2021/05/01 07:32:02;;;;;;;;;;;10.00;99.90;;;;;;5044969;28;19917;-80
2021/05/01 07:34:29;;;;;;;;;;;10.10;99.90;;;;;;5032234;28;19928;-79
2021/05/01 07:37:03;;;;;;;;;;;10.20;99.90;;;;;;5051265;28;19921;-79
2021/05/01 07:39:29;;;;;;;;;;;10.30;99.90;;;;;;5066415;28;19962;-80
2021/05/01 07:41:57;;;;;;;;;;;10.30;99.90;;;;;;5051102;28;19917;-80
2021/05/01 07:44:25;;;;;;;;;;;10.40;99.90;;;;;;5050480;28;19921;-81
2021/05/01 07:46:50;;;;;;;;;;;10.50;99.90;;;;;;5033076;28;20369;-81
2021/05/01 07:49:16;;;;;;;;;;;10.50;99.90;;;;;;5049421;28;19932;-80
2021/05/01 07:51:42;;;;;;;;;;;10.50;99.90;;;;;;5057690;28;19923;-80
2021/05/01 07:54:09;;;;;;;;;;;10.60;99.90;;;;;;5044074;28;20346;-78
2021/05/01 07:56:35;;;;;;;;;;;10.70;99.90;;;;;;5053149;28;19943;-78
2021/05/01 07:59:01;;;;;;;;;;;10.80;99.90;;;;;;5055801;28;19921;-77
2021/05/01 08:01:27;;;;;;;;;;;10.90;99.90;;;;;;5050738;28;19931;-80
2021/05/01 08:03:54;;;;;;;;;;;11.10;99.90;;;;;;5032094;28;19921;-80
2021/05/01 08:06:20;;;;;;;;;;;11.20;99.90;;;;;;5053072;28;19916;-79
2021/05/01 08:08:46;;;;;;;;;;;11.20;99.90;;;;;;5052696;28;19928;-79
2021/05/01 08:11:12;;;;;;;;;;;11.30;99.90;;;;;;5049056;28;20002;-77
2021/05/01 08:13:38;;;;;;;;;;;11.30;99.90;;;;;;5050900;28;19917;-80
2021/05/01 08:16:03;;;;;;;;;;;11.20;99.90;;;;;;5049706;28;19916;-81
2021/05/01 08:18:29;;;;;;;;;;;11.20;99.90;;;;;;5047841;28;19948;-82
2021/05/01 08:20:55;;;;;;;;;;;11.20;99.90;;;;;;5048265;28;19987;-81
2021/05/01 08:23:20;;;;;;;;;;;11.10;99.90;;;;;;5034904;28;19921;-80
2021/05/01 08:25:46;;;;;;;;;;;10.90;99.90;;;;;;5032864;28;19920;-79
2021/05/01 08:28:12;;;;;;;;;;;10.90;99.90;;;;;;5061105;28;20394;-80
2021/05/01 08:30:38;;;;;;;;;;;11.00;99.90;;;;;;5052140;28;19924;-80
2021/05/01 08:33:03;;;;;;;;;;;11.10;99.90;;;;;;5053408;28;19925;-81
2021/05/01 08:35:29;;;;;;;;;;;11.30;99.90;;;;;;5031382;28;19920;-81
2021/05/01 08:37:55;;;;;;;;;;;11.50;99.90;;;;;;5050530;28;19964;-79
2021/05/01 08:40:21;;;;;;;;;;;11.70;99.90;;;;;;5046782;28;19952;-79
2021/05/01 08:42:47;;;;;;;;;;;11.60;99.90;;;;;;5050506;28;19924;-79
2021/05/01 08:45:16;;;;;;;;;;;11.60;99.90;;;;;;5049865;28;20014;-79
2021/05/01 08:47:43;;;;;;;;;;;11.50;99.90;;;;;;5050022;28;19917;-79
2021/05/01 08:50:24;;;;;;;;;;;11.30;99.90;;;;;;5045292;28;19962;-79
2021/05/01 08:52:50;;;;;;;;;;;11.10;99.90;;;;;;5039432;28;19962;-80
2021/05/01 08:55:16;;;;;;;;;;;11.00;99.90;;;;;;5031787;28;20003;-79
2021/05/01 08:57:42;;;;;;;;;;;10.60;99.90;;;;;;5031936;28;19943;-80
2021/05/01 09:00:07;;;;;;;;;;;10.60;99.90;;;;;;5051636;28;20007;-82
2021/05/01 09:02:34;;;;;;;;;;;10.60;99.90;;;;;;5049431;28;19929;-79
2021/05/01 09:05:00;;;;;;;;;;;10.50;99.90;;;;;;5044521;28;19923;-77
2021/05/01 09:07:27;;;;;;;;;;;10.30;99.90;;;;;;5033342;28;19925;-78
2021/05/01 09:09:57;;;;;;;;;;;10.30;99.90;;;;;;5039187;28;19987;-80
2021/05/01 09:12:36;;;;;;;;;;;10.20;99.90;;;;;;5051079;28;19916;-78
2021/05/01 09:15:03;;;;;;;;;;;10.30;99.90;;;;;;5054105;28;20020;-81
2021/05/01 09:17:30;;;;;;;;;;;10.20;99.90;;;;;;5049024;28;19931;-80
2021/05/01 09:20:06;;;;;;;;;;;10.30;99.90;;;;;;5048878;28;19962;-78
2021/05/01 09:22:31;;;;;;;;;;;10.10;99.90;;;;;;5049359;28;20361;-79
2021/05/01 09:25:07;;;;;;;;;;;10.10;99.90;;;;;;5050547;28;19917;-79
2021/05/01 09:27:34;;;;;;;;;;;10.20;99.90;;;;;;5034962;28;20415;-79
2021/05/01 09:30:13;;;;;;;;;;;10.20;99.90;;;;;;5046298;28;19959;-78
2021/05/01 09:32:39;;;;;;;;;;;10.20;99.90;;;;;;5059114;28;19920;-79
2021/05/01 09:35:06;;;;;;;;;;;10.20;99.90;;;;;;5056590;28;19917;-79
2021/05/01 09:37:32;;;;;;;;;;;10.30;99.90;;;;;;5062906;28;20004;-78
2021/05/01 09:39:59;;;;;;;;;;;10.30;99.90;;;;;;5031493;28;19923;-80
2021/05/01 09:42:27;;;;;;;;;;;10.20;99.90;;;;;;5048765;28;19916;-79
2021/05/01 09:45:05;;;;;;;;;;;10.20;99.90;;;;;;5050024;28;19916;-80
2021/05/01 09:47:31;;;;;;;;;;;10.30;99.90;;;;;;5048375;28;19958;-80
2021/05/01 09:49:56;;;;;;;;;;;10.30;99.90;;;;;;5046216;28;20003;-80
2021/05/01 09:52:23;;;;;;;;;;;10.30;99.90;;;;;;5049546;28;19928;-79
2021/05/01 09:54:50;;;;;;;;;;;10.30;99.90;;;;;;5055363;28;19923;-81
2021/05/01 09:57:19;;;;;;;;;;;10.30;99.90;;;;;;5050251;28;20388;-80
2021/05/01 09:59:45;;;;;;;;;;;10.30;99.90;;;;;;5051713;28;19917;-80
2021/05/01 10:02:15;;;;;;;;;;;10.30;99.90;;;;;;5054728;28;19924;-80
2021/05/01 10:04:57;;;;;;;;;;;10.40;99.90;;;;;;5073271;28;19976;-79
2021/05/01 10:07:23;;;;;;;;;;;10.50;99.90;;;;;;5050892;28;19917;-82
2021/05/01 10:09:54;;;;;;;;;;;10.50;99.90;;;;;;5051839;28;20020;-80
2021/05/01 10:12:21;;;;;;;;;;;10.50;99.90;;;;;;5029795;28;20024;-80
2021/05/01 10:14:53;;;;;;;;;;;10.50;99.90;;;;;;5048049;28;19925;-80
2021/05/01 10:17:22;;;;;;;;;;;10.70;99.90;;;;;;5031423;28;19928;-82
2021/05/01 10:19:52;;;;;;;;;;;10.90;99.90;;;;;;5047871;28;19920;-81
2021/05/01 10:22:28;;;;;;;;;;;11.00;99.90;;;;;;5053750;28;19954;-79
2021/05/01 10:24:55;;;;;;;;;;;11.00;99.90;;;;;;5036068;28;19939;-80
2021/05/01 10:27:21;;;;;;;;;;;11.20;99.90;;;;;;5052327;28;19943;-81
2021/05/01 10:33:18;;;;;;;;;;;11.40;99.90;;;;;;5031937;28;20432;-80
2021/05/01 10:36:15;;;;;;;13.82;10.82;;;11.60;99.90;;;;;;5100625;27;20373;-75
2021/05/01 10:38:42;;;;;;;15.75;11.73;;;11.90;99.90;;;;;;5023866;28;20068;-76
2021/05/01 10:41:13;;;;;;;;;;;12.30;99.90;;;;;;5032731;28;20049;-76
2021/05/01 10:43:46;;;;;;;15.15;11.18;;;12.70;99.90;;;;;;5025215;28;19917;-76
2021/05/01 10:46:12;;;;;;;12.60;10.52;;;13.10;99.00;;;;;;5038580;28;20501;-76
2021/05/01 10:48:50;;;;;;;14.05;11.57;;;13.20;96.40;;;;;;5041808;28;20037;-76
2021/05/01 10:51:21;;;;;;;15.55;11.70;;;13.00;95.40;;;;;;5039102;28;20064;-75
2021/05/01 10:53:48;;;;;;;12.63;10.50;;;12.80;94.70;;;;;;5028068;28;20107;-76
2021/05/01 10:56:14;;;;;;;15.55;11.40;;;12.50;95.90;;;;;;5041243;28;20794;-76
2021/05/01 10:58:44;;;;;;;16.13;11.68;;;12.40;98.70;;;;;;5028651;28;20033;-75
2021/05/01 11:01:19;;;;;;;14.93;11.57;;;12.40;98.50;;;;;;5033891;28;20391;-75
2021/05/01 11:03:47;;;;;;;13.57;11.15;;;12.50;99.90;;;;;;5042821;28;20152;-75
2021/05/01 11:06:21;;;;;;;11.57;9.93;;;12.70;93.30;;;;;;5042834;28;20459;-76
2021/05/01 11:08:57;;;;;;;10.88;8.95;;;12.30;95.50;;;;;;5029856;28;20053;-75
2021/05/01 11:11:36;;;;;;;7.88;6.30;;;12.20;94.60;;;;;;5025332;28;20042;-76
2021/05/01 11:14:29;;;;;;;7.57;6.15;;;11.90;94.00;;;;;;5040440;28;20126;-77
2021/05/01 11:17:12;;;;;;;8.68;7.20;;;11.30;93.80;;;;;;5027007;28;20081;-77
2021/05/01 11:19:46;;;;;;;8.77;7.35;;;10.70;96.20;;;;;;5023646;28;20041;-77
2021/05/01 11:22:21;;;;;;;9.02;7.10;;;10.60;97.90;;;;;;5021901;28;20042;-76
2021/05/01 11:24:46;;;;;;;10.35;7.88;;;10.50;97.90;;;;;;5033324;28;20601;-76
2021/05/01 11:27:13;;;;;;;8.55;6.50;;;10.40;98.10;;;;;;5023128;28;20113;-76
2021/05/01 11:29:40;;;;;;;9.82;6.95;;;10.40;98.40;;;;;;5025603;28;20032;-76
2021/05/01 11:32:07;;;;;;;9.00;7.32;;;10.40;98.70;;;;;;5022997;28;20061;-77
2021/05/01 11:34:34;;;;;;;10.13;7.93;;;10.40;98.40;;;;;;5031359;28;20062;-76
2021/05/01 11:37:04;;;;;;;9.07;7.25;;;10.50;98.40;;;;;;5032782;28;20459;-76
2021/05/01 11:39:36;;;;;;;9.52;7.63;;;10.60;99.10;;;;;;5022988;28;20045;-76
2021/05/01 11:42:02;;;;;;;9.50;7.70;;;10.70;99.40;;;;;;5032023;28;20422;-76
2021/05/01 11:44:28;;;;;;;9.45;7.85;;;10.90;99.60;;;;;;5023509;28;20044;-76
2021/05/01 11:46:57;;;;;;;;;;;11.00;98.90;;;;;;5011298;28;20052;-76
2021/05/01 11:49:25;;;;;;;9.77;7.97;;;11.00;99.10;;;;;;5012576;28;20016;-76
2021/05/01 11:52:15;;;;;;;10.57;7.18;;;10.90;99.30;;;;;;5020924;28;20048;-76
2021/05/01 11:55:10;;;;;;;10.57;7.78;;;11.00;99.90;;;;;;5017231;28;20357;-76
2021/05/01 11:57:56;;;;;;;9.93;7.72;;;11.20;99.90;;;;;;5009056;28;20042;-75
2021/05/01 12:00:40;;;;;;;10.23;7.95;;;11.50;99.50;;;;;;5011679;28;20034;-77
2021/05/01 12:03:21;;;;;;;10.70;9.25;;;11.50;99.50;;;;;;5008575;28;20361;-76
2021/05/01 12:06:11;;;;;;;10.50;8.43;;;11.50;97.70;;;;;;5006738;28;20479;-75
2021/05/01 12:08:38;;;;;;;11.73;8.20;;;11.10;99.90;;;;;;5012834;28;20034;-76
2021/05/01 12:11:06;;;;;;;11.85;9.55;;;11.10;99.60;;;;;;5011922;28;20397;-76
2021/05/01 12:13:36;;;;;;;11.50;8.55;;;11.20;98.80;;;;;;5013472;28;20077;-76
2021/05/01 12:16:04;;;;;;;12.80;9.75;;;11.20;99.60;;;;;;5015316;28;20066;-76
2021/05/01 12:18:56;;;;;;;10.98;8.50;;;11.20;99.10;;;;;;5013196;28;20088;-76
2021/05/01 12:21:23;;;;;;;11.98;9.40;;;11.20;99.50;;;;;;5017907;28;20552;-76
2021/05/01 12:23:52;;;;;;;10.05;8.45;;;11.20;99.70;;;;;;5026862;28;21375;-76
2021/05/01 12:26:44;;;;;;;12.32;9.60;;;11.30;98.80;;;;;;5000709;28;20038;-76
2021/05/01 12:29:22;;;;;;;13.82;10.38;;;11.40;99.50;;;;;;5011027;28;20438;-77
2021/05/01 12:31:53;;;;;;;10.77;9.20;;;11.60;98.30;;;;;;5027586;28;20471;-76
2021/05/01 12:34:20;;;;;;;11.50;9.40;;;11.80;97.30;;;;;;5025787;28;20167;-76
2021/05/01 12:36:48;;;;;;;9.20;7.85;;;11.80;97.30;;;;;;5025959;28;20498;-76
2021/05/01 12:39:15;;;;;;;11.52;9.25;;;11.90;98.60;;;;;;5015026;28;20041;-77
2021/05/01 12:41:49;;;;;;;12.07;9.25;;;12.10;97.30;;;;;;5016651;28;20038;-77
2021/05/01 12:44:39;;;;;;;13.18;8.75;;;12.30;97.10;;;;;;5017710;28;20095;-77
2021/05/01 12:47:05;;;;;;;13.18;9.32;;;12.30;95.60;;;;;;5019863;28;20113;-76
2021/05/01 12:49:34;;;;;;;12.00;7.90;;;12.30;96.70;;;;;;5017542;28;20459;-76
2021/05/01 12:52:10;;;;;;;9.85;8.70;;;12.40;96.60;;;;;;5024032;28;20063;-77
2021/05/01 12:54:41;;;;;;;12.32;9.10;;;12.70;95.30;;;;;;5002953;28;20533;-77
2021/05/01 12:57:16;;;;;;;9.63;8.45;;;12.80;94.20;;;;;;5022468;28;20483;-77
2021/05/01 12:59:44;;;;;;;9.13;8.23;;;12.90;94.00;;;;;;5028917;28;20430;-77
2021/05/01 13:02:10;;;;;;;11.38;7.97;;;13.30;92.20;;;;;;5025811;28;20037;-76
2021/05/01 13:04:37;;;;;;;11.32;8.02;;;13.60;94.50;;;;;;5019321;28;20042;-77
2021/05/01 13:07:05;;;;;;;11.15;9.30;;;14.10;91.90;;;;;;5022037;28;20087;-77
2021/05/01 13:09:50;;;;;;;10.40;8.35;;;14.10;90.40;;;;;;5016980;28;20060;-76
2021/05/01 13:12:21;;;;;;;12.00;8.88;;;13.90;90.50;;;;;;5013781;28;20038;-77
2021/05/01 13:14:47;;;;;;;9.88;7.85;;;13.40;91.10;;;;;;5024091;28;20041;-77
2021/05/01 13:17:17;;;;;;;10.10;8.65;;;13.00;92.70;;;;;;5020750;28;20041;-76
2021/05/01 13:19:45;;;;;;;10.35;7.80;;;12.70;93.90;;;;;;5012700;28;20045;-77
2021/05/01 13:22:16;;;;;;;8.45;7.47;;;12.50;94.10;;;;;;5016173;28;20036;-77
2021/05/01 13:24:42;;;;;;;8.73;6.90;;;12.30;94.90;;;;;;5023261;28;20042;-76
2021/05/01 13:27:12;;;;;;;8.25;7.32;;;12.00;96.50;;;;;;5011719;28;20076;-76
2021/05/01 13:29:39;;;;;;;8.50;7.25;;;11.90;96.20;;;;;;5019003;28;20424;-77
2021/05/01 13:32:06;;;;;;;7.78;6.82;;;11.80;96.70;;;;;;5022590;28;20110;-77
2021/05/01 13:34:33;;;;;;;8.68;6.82;;;11.70;97.60;;;;;;5020070;28;20056;-77
2021/05/01 13:36:59;;;;;;;8.05;6.88;;;11.80;97.30;;;;;;5018501;28;20033;-77
2021/05/01 13:39:28;;;;;;;9.10;7.70;;;12.00;97.50;;;;;;5011022;28;20038;-76
2021/05/01 13:42:02;;;;;;;9.13;7.78;;;12.20;96.30;;;;;;5011493;28;20048;-76
2021/05/01 13:44:39;;;;;;;8.13;6.65;;;12.30;94.50;;;;;;5014873;28;20041;-77
2021/05/01 13:47:15;;;;;;;7.72;6.40;;;12.10;94.90;;;;;;5021327;28;20116;-77
2021/05/01 13:49:41;;;;;;;7.18;5.97;;;12.10;95.40;;;;;;5014556;28;20033;-76
2021/05/01 13:52:07;;;;;;;5.75;4.95;;;12.10;96.00;;;;;;5014826;28;20040;-77
2021/05/01 13:54:35;;;;;;;5.43;4.35;;;12.20;94.50;;;;;;5013430;28;20068;-76
2021/05/01 13:57:10;;;;;;;5.25;4.43;;;12.00;94.20;;;;;;5016376;28;20474;-77
2021/05/01 13:59:36;;;;;;;5.75;4.63;;;11.80;95.20;;;;;;5013945;28;20075;-77
2021/05/01 14:02:02;;;;;;;;;;;11.80;95.70;;;;;;5015199;28;20026;-76
2021/05/01 14:04:33;;;;;;;5.10;4.00;;;11.80;94.90;;;;;;5010884;28;19937;-75
2021/05/01 14:07:01;;;;;;;5.95;4.80;;;11.80;95.50;;;;;;5013784;28;20044;-75